createdAt,value
2018-02-17T00:00:33.327Z,10.17
2018-02-17T00:03:01.807Z,10.57
2018-02-17T00:05:30.259Z,10.40
2018-02-17T00:07:57.997Z,10.20
2018-02-17T00:10:25.679Z,9.97
2018-02-17T00:12:53.403Z,10.07
2018-02-17T00:15:21.086Z,10.90
2018-02-17T00:17:48.803Z,10.60
2018-02-17T00:20:17.234Z,10.53
2018-02-17T00:22:49.908Z,10.47
2018-02-17T00:25:17.591Z,11.27
2018-02-17T00:27:45.374Z,9.70
2018-02-17T00:30:13.832Z,9.80
2018-02-17T00:32:41.551Z,10.20
2018-02-17T00:35:09.221Z,9.83
2018-02-17T00:37:36.990Z,9.27
2018-02-17T00:40:04.671Z,9.07
2018-02-17T00:42:32.383Z,9.27
2018-02-17T00:45:00.113Z,10.53
2018-02-17T00:47:27.814Z,10.40
2018-02-17T00:49:55.531Z,9.80
2018-02-17T00:52:23.237Z,10.07
2018-02-17T00:54:50.910Z,10.37
2018-02-17T00:57:18.666Z,9.90
2018-02-17T00:59:46.360Z,8.63
2018-02-17T01:02:14.063Z,9.30
2018-02-17T01:04:42.500Z,9.37
2018-02-17T01:07:10.213Z,9.47
2018-02-17T01:09:37.922Z,10.10
2018-02-17T01:12:05.655Z,9.73
2018-02-17T01:14:33.407Z,10.40
2018-02-17T01:17:01.081Z,9.63
2018-02-17T01:19:28.791Z,9.43
2018-02-17T01:21:56.530Z,8.57
2018-02-17T01:24:24.270Z,9.00
2018-02-17T01:26:51.948Z,9.17
2018-02-17T01:29:19.662Z,8.97
2018-02-17T01:31:48.110Z,9.40
2018-02-17T01:34:15.836Z,9.77
2018-02-17T01:36:43.498Z,9.97
2018-02-17T01:39:11.219Z,9.00
2018-02-17T01:41:39.659Z,9.00
2018-02-17T01:44:07.410Z,9.73
2018-02-17T01:46:35.087Z,10.27
2018-02-17T01:49:02.802Z,10.30
2018-02-17T01:51:30.475Z,8.80
2018-02-17T01:53:58.247Z,8.60
2018-02-17T01:56:25.918Z,9.63
2018-02-17T01:58:53.676Z,8.73
2018-02-17T02:01:21.412Z,9.23
2018-02-17T02:03:49.131Z,9.97
2018-02-17T02:06:16.802Z,8.57
2018-02-17T02:08:45.281Z,9.30
2018-02-17T02:11:13.728Z,7.87
2018-02-17T02:13:41.435Z,9.90
2018-02-17T02:16:09.091Z,8.63
2018-02-17T02:18:37.542Z,9.20
2018-02-17T02:21:05.251Z,9.87
2018-02-17T02:23:32.919Z,8.97
2018-02-17T02:26:00.623Z,10.20
2018-02-17T02:28:28.292Z,9.40
2018-02-17T02:30:56.768Z,8.70
2018-02-17T02:33:24.459Z,9.70
2018-02-17T02:35:52.165Z,9.00
2018-02-17T02:38:19.831Z,9.70
2018-02-17T02:40:47.539Z,9.83
2018-02-17T02:43:15.205Z,10.00
2018-02-17T02:45:42.915Z,9.80
2018-02-17T02:48:10.575Z,10.00
2018-02-17T02:50:38.311Z,10.23
2018-02-17T02:53:05.981Z,9.73
2018-02-17T02:55:33.684Z,9.70
2018-02-17T02:58:02.107Z,9.90
2018-02-17T03:00:29.825Z,10.57
2018-02-17T03:02:57.487Z,9.90
2018-02-17T03:05:25.155Z,10.67
2018-02-17T03:07:52.863Z,11.03
2018-02-17T03:10:20.528Z,9.57
2018-02-17T03:12:48.289Z,9.70
2018-02-17T03:15:16.755Z,12.10
2018-02-17T03:17:44.499Z,10.27
2018-02-17T03:20:12.202Z,10.00
2018-02-17T03:22:39.914Z,10.50
2018-02-17T03:25:07.578Z,10.60
2018-02-17T03:27:35.332Z,12.47
2018-02-17T03:30:03.004Z,11.50
2018-02-17T03:32:30.752Z,10.80
2018-02-17T03:34:58.423Z,10.63
2018-02-17T03:37:26.127Z,11.90
2018-02-17T03:39:54.551Z,11.57
2018-02-17T03:42:22.274Z,12.20
2018-02-17T03:44:50.746Z,12.40
2018-02-17T03:47:19.233Z,11.70
2018-02-17T03:49:47.655Z,11.00
2018-02-17T03:52:15.320Z,13.20
2018-02-17T03:54:43.015Z,10.40
2018-02-17T03:57:11.442Z,13.47
2018-02-17T03:59:39.146Z,11.93
2018-02-17T04:02:06.809Z,12.63
2018-02-17T04:04:35.279Z,12.43
2018-02-17T04:07:02.947Z,12.67
2018-02-17T04:09:31.411Z,11.50
2018-02-17T04:11:59.084Z,12.13
2018-02-17T04:14:27.548Z,12.73
2018-02-17T04:16:55.211Z,12.83
2018-02-17T04:19:22.918Z,13.10
2018-02-17T04:21:50.587Z,14.73
2018-02-17T04:24:18.295Z,13.43
2018-02-17T04:26:45.958Z,12.70
2018-02-17T04:29:13.688Z,11.77
2018-02-17T04:31:41.356Z,11.90
2018-02-17T04:34:09.051Z,11.30
2018-02-17T04:36:37.527Z,10.87
2018-02-17T04:39:06.051Z,10.53
2018-02-17T04:44:39.403Z,12.00
2018-02-17T04:47:09.775Z,11.07
2018-02-17T04:49:39.438Z,11.50
2018-02-17T04:52:09.854Z,11.60
2018-02-17T04:54:44.068Z,12.87
2018-02-17T04:57:14.467Z,11.07
2018-02-17T04:59:48.101Z,11.30
2018-02-17T05:02:20.476Z,12.37
2018-02-17T05:04:50.740Z,11.47
2018-02-17T05:07:34.067Z,10.83
2018-02-17T05:10:01.839Z,12.07
2018-02-17T05:12:29.535Z,11.67
2018-02-17T05:15:01.747Z,11.27
2018-02-17T05:17:30.364Z,12.60
2018-02-17T05:19:58.899Z,10.40
2018-02-17T05:22:26.595Z,12.27
2018-02-17T05:24:55.140Z,11.00
2018-02-17T05:30:26.809Z,9.77
2018-02-17T05:33:13.239Z,11.70
2018-02-17T05:35:43.880Z,10.50
2018-02-17T05:38:11.586Z,11.67
2018-02-17T05:40:40.109Z,10.60
2018-02-17T05:43:07.814Z,10.90
2018-02-17T05:45:36.078Z,10.37
2018-02-17T05:48:04.294Z,11.83
2018-02-17T05:50:32.044Z,11.37
2018-02-17T05:52:59.704Z,11.03
2018-02-17T05:55:27.410Z,10.30
2018-02-17T05:57:55.835Z,10.87
2018-02-17T06:00:23.567Z,11.93
2018-02-17T06:02:51.236Z,11.00
2018-02-17T06:05:18.970Z,11.40
2018-02-17T06:07:47.436Z,12.87
2018-02-17T06:10:15.182Z,20.03
2018-02-17T06:12:42.888Z,19.10
2018-02-17T06:15:10.603Z,13.90
2018-02-17T06:17:38.265Z,12.37
2018-02-17T06:20:05.923Z,11.40
2018-02-17T06:22:33.659Z,10.80
2018-02-17T06:25:01.316Z,11.50
2018-02-17T06:27:29.031Z,11.03
2018-02-17T06:29:57.498Z,11.67
2018-02-17T06:32:26.020Z,12.43
2018-02-17T06:34:53.687Z,12.30
2018-02-17T06:37:22.184Z,9.43
2018-02-17T06:39:49.852Z,10.80
2018-02-17T06:42:17.552Z,11.23
2018-02-17T06:44:45.212Z,11.90
2018-02-17T06:47:12.913Z,11.13
2018-02-17T06:49:40.572Z,17.00
2018-02-17T06:52:08.266Z,14.70
2018-02-17T06:54:35.917Z,11.53
2018-02-17T06:57:03.640Z,11.90
2018-02-17T06:59:31.338Z,10.90
2018-02-17T07:01:59.043Z,13.00
2018-02-17T07:04:26.703Z,11.13
2018-02-17T07:06:54.414Z,13.43
2018-02-17T07:09:22.072Z,11.50
2018-02-17T07:11:49.779Z,12.57
2018-02-17T07:14:17.442Z,11.97
2018-02-17T07:16:45.151Z,12.00
2018-02-17T07:19:12.822Z,12.60
2018-02-17T07:21:41.350Z,12.70
2018-02-17T07:24:09.059Z,13.70
2018-02-17T07:26:36.807Z,12.13
2018-02-17T07:29:04.517Z,11.30
2018-02-17T07:31:32.224Z,13.07
2018-02-17T07:33:59.892Z,14.67
2018-02-17T07:36:27.609Z,12.30
2018-02-17T07:38:55.328Z,11.13
2018-02-17T07:41:23.803Z,11.00
2018-02-17T07:43:52.227Z,11.10
2018-02-17T07:46:19.926Z,12.10
2018-02-17T07:48:47.610Z,11.47
2018-02-17T07:51:16.111Z,10.30
2018-02-17T07:53:43.772Z,16.53
2018-02-17T07:56:11.437Z,18.00
2018-02-17T07:58:39.147Z,16.90
2018-02-17T08:01:06.808Z,13.17
2018-02-17T08:03:34.515Z,14.40
2018-02-17T08:06:02.183Z,13.13
2018-02-17T08:08:31.435Z,11.47
2018-02-17T08:11:01.482Z,11.40
2018-02-17T08:13:29.186Z,11.60
2018-02-17T08:15:56.851Z,11.37
2018-02-17T08:18:24.592Z,11.97
2018-02-17T08:20:52.247Z,11.67
2018-02-17T08:23:19.964Z,12.33
2018-02-17T08:25:48.414Z,11.97
2018-02-17T08:28:16.114Z,12.07
2018-02-17T08:30:43.825Z,11.50
2018-02-17T08:33:11.585Z,11.63
2018-02-17T08:35:39.298Z,12.10
2018-02-17T08:38:07.059Z,12.70
2018-02-17T08:40:34.729Z,14.70
2018-02-17T08:43:02.435Z,13.43
2018-02-17T08:45:30.091Z,12.73
2018-02-17T08:47:57.798Z,12.13
2018-02-17T08:50:25.462Z,11.57
2018-02-17T08:52:53.194Z,11.53
2018-02-17T08:55:21.619Z,13.50
2018-02-17T08:57:49.328Z,11.80
2018-02-17T09:00:17.792Z,12.00
2018-02-17T09:02:45.533Z,12.50
2018-02-17T09:05:13.271Z,13.23
2018-02-17T09:07:41.010Z,12.70
2018-02-17T09:10:08.675Z,12.40
2018-02-17T09:12:36.416Z,12.33
2018-02-17T09:15:04.855Z,14.60
2018-02-17T09:17:32.559Z,13.63
2018-02-17T09:20:00.982Z,13.03
2018-02-17T09:22:28.688Z,37.23
2018-02-17T09:24:57.114Z,17.80
2018-02-17T09:29:58.551Z,21.60
2018-02-17T09:32:26.259Z,26.80
2018-02-17T09:34:53.919Z,21.67
2018-02-17T09:37:21.619Z,18.30
2018-02-17T09:39:50.046Z,28.40
2018-02-17T09:42:17.743Z,14.20
2018-02-17T09:44:46.210Z,12.73
2018-02-17T09:47:13.945Z,14.50
2018-02-17T09:49:41.623Z,15.47
2018-02-17T09:52:09.340Z,13.90
2018-02-17T09:54:37.000Z,12.03
2018-02-17T09:57:04.659Z,14.87
2018-02-17T09:59:32.359Z,14.10
2018-02-17T10:02:00.019Z,13.13
2018-02-17T10:04:27.735Z,17.00
2018-02-17T10:06:55.395Z,13.57
2018-02-17T10:09:23.087Z,12.30
2018-02-17T10:11:50.752Z,12.70
2018-02-17T10:14:18.459Z,13.67
2018-02-17T10:16:46.110Z,14.43
2018-02-17T10:19:14.583Z,11.43
2018-02-17T10:21:43.004Z,12.47
2018-02-17T10:24:10.702Z,12.57
2018-02-17T10:26:38.376Z,11.43
2018-02-17T10:29:06.866Z,11.53
2018-02-17T10:31:34.556Z,10.57
2018-02-17T10:34:02.255Z,12.60
2018-02-17T10:36:29.914Z,11.30
2018-02-17T10:38:57.612Z,12.40
2018-02-17T10:41:25.262Z,11.13
2018-02-17T10:43:53.730Z,12.33
2018-02-17T10:46:22.179Z,17.57
2018-02-17T10:48:49.887Z,26.23
2018-02-17T10:51:17.615Z,16.70
2018-02-17T10:53:45.315Z,14.27
2018-02-17T10:56:12.987Z,17.20
2018-02-17T10:58:40.695Z,15.43
2018-02-17T11:01:08.351Z,16.03
2018-02-17T11:03:36.048Z,12.03
2018-02-17T11:06:03.748Z,12.10
2018-02-17T11:08:31.447Z,12.50
2018-02-17T11:10:59.895Z,12.00
2018-02-17T11:13:27.595Z,11.10
2018-02-17T11:15:56.017Z,11.03
2018-02-17T11:18:23.730Z,11.07
2018-02-17T11:20:52.150Z,12.23
2018-02-17T11:23:19.843Z,12.00
2018-02-17T11:25:47.503Z,11.70
2018-02-17T11:28:15.199Z,12.10
2018-02-17T11:30:42.849Z,13.73
2018-02-17T11:33:10.548Z,11.30
2018-02-17T11:35:38.214Z,11.30
2018-02-17T11:38:05.982Z,13.90
2018-02-17T11:40:33.653Z,12.30
2018-02-17T11:43:01.415Z,10.40
2018-02-17T11:45:29.815Z,10.87
2018-02-17T11:47:58.275Z,12.10
2018-02-17T11:50:25.931Z,10.80
2018-02-17T11:52:53.670Z,11.00
2018-02-17T11:55:21.335Z,11.33
2018-02-17T11:57:49.075Z,10.37
2018-02-17T12:00:16.740Z,10.13
2018-02-17T12:02:44.441Z,11.60
2018-02-17T12:05:12.103Z,12.40
2018-02-17T12:07:39.795Z,11.87
2018-02-17T12:10:07.447Z,12.60
2018-02-17T12:12:35.126Z,12.33
2018-02-17T12:15:02.853Z,11.43
2018-02-17T12:17:31.146Z,19.23
2018-02-17T12:19:58.848Z,13.60
2018-02-17T12:22:26.507Z,13.40
2018-02-17T12:24:54.215Z,18.03
2018-02-17T12:27:22.635Z,14.50
2018-02-17T12:29:50.332Z,12.53
2018-02-17T12:32:17.991Z,12.80
2018-02-17T12:34:45.705Z,13.43
2018-02-17T12:37:13.367Z,12.60
2018-02-17T12:39:41.063Z,12.30
2018-02-17T12:42:08.715Z,19.27
2018-02-17T12:44:36.408Z,12.70
2018-02-17T12:47:04.854Z,11.30
2018-02-17T12:49:32.565Z,11.63
2018-02-17T12:52:00.219Z,13.07
2018-02-17T12:54:27.918Z,12.33
2018-02-17T12:56:55.593Z,13.77
2018-02-17T12:59:23.295Z,14.13
2018-02-17T13:01:50.974Z,14.77
2018-02-17T13:04:18.715Z,12.80
2018-02-17T13:06:46.390Z,14.40
2018-02-17T13:09:14.091Z,14.90
2018-02-17T13:11:41.756Z,14.83
2018-02-17T13:14:09.750Z,16.57
2018-02-17T13:16:38.219Z,15.93
2018-02-17T13:19:06.695Z,25.50
2018-02-17T13:21:35.143Z,15.73
2018-02-17T13:24:02.839Z,22.67
2018-02-17T13:26:31.279Z,19.97
2018-02-17T13:28:59.066Z,19.37
2018-02-17T13:31:26.719Z,17.20
2018-02-17T13:33:54.414Z,15.40
2018-02-17T13:36:22.074Z,14.50
2018-02-17T13:38:49.777Z,14.20
2018-02-17T13:41:17.451Z,14.47
2018-02-17T13:43:45.151Z,14.87
2018-02-17T13:46:13.577Z,15.13
2018-02-17T13:48:41.284Z,21.40
2018-02-17T13:51:09.708Z,15.97
2018-02-17T13:53:37.411Z,13.97
2018-02-17T13:56:05.834Z,14.47
2018-02-17T13:58:33.531Z,14.97
2018-02-17T14:01:01.186Z,14.53
2018-02-17T14:03:28.883Z,14.30
2018-02-17T14:05:57.306Z,22.17
2018-02-17T14:08:25.004Z,15.83
2018-02-17T14:10:53.430Z,15.80
2018-02-17T14:13:21.141Z,14.20
2018-02-17T14:15:49.657Z,14.73
2018-02-17T14:18:18.094Z,17.13
2018-02-17T14:20:46.533Z,13.83
2018-02-17T14:23:14.255Z,14.30
2018-02-17T14:25:41.907Z,14.27
2018-02-17T14:28:10.410Z,15.10
2018-02-17T14:30:38.072Z,15.33
2018-02-17T14:33:05.722Z,13.60
2018-02-17T14:35:33.419Z,13.60
2018-02-17T14:38:01.074Z,13.90
2018-02-17T14:40:28.779Z,14.80
2018-02-17T14:42:57.239Z,13.30
2018-02-17T14:45:24.938Z,13.60
2018-02-17T14:47:52.615Z,13.50
2018-02-17T14:50:20.320Z,13.73
2018-02-17T14:52:48.030Z,14.17
2018-02-17T14:55:15.771Z,14.20
2018-02-17T14:57:43.467Z,13.20
2018-02-17T15:00:11.167Z,14.57
2018-02-17T15:02:39.591Z,12.50
2018-02-17T15:05:07.301Z,16.67
2018-02-17T15:07:34.958Z,13.53
2018-02-17T15:10:02.659Z,20.50
2018-02-17T15:12:30.311Z,15.57
2018-02-17T15:14:58.020Z,15.00
2018-02-17T15:17:25.680Z,13.67
2018-02-17T15:19:53.438Z,13.97
2018-02-17T15:22:21.102Z,13.70
2018-02-17T15:24:48.800Z,14.87
2018-02-17T15:27:17.220Z,11.67
2018-02-17T15:29:44.923Z,14.17
2018-02-17T15:32:13.348Z,14.10
2018-02-17T15:34:41.043Z,14.80
2018-02-17T15:37:08.709Z,13.50
2018-02-17T15:39:36.415Z,15.63
2018-02-17T15:42:04.091Z,14.23
2018-02-17T15:44:31.810Z,17.53
2018-02-17T15:47:00.231Z,20.87
2018-02-17T15:49:27.940Z,14.00
2018-02-17T15:51:56.364Z,20.17
2018-02-17T15:54:24.064Z,14.50
2018-02-17T15:56:51.783Z,13.47
2018-02-17T15:59:19.487Z,18.70
2018-02-17T16:01:47.139Z,13.60
2018-02-17T16:04:14.888Z,16.30
2018-02-17T16:06:42.576Z,13.70
2018-02-17T16:09:11.040Z,13.80
2018-02-17T16:11:38.757Z,22.50
2018-02-17T16:14:06.467Z,19.37
2018-02-17T16:16:34.136Z,18.47
2018-02-17T16:19:02.614Z,12.30
2018-02-17T16:21:31.035Z,12.70
2018-02-17T16:23:58.743Z,12.60
2018-02-17T16:26:26.412Z,11.73
2018-02-17T16:28:54.883Z,12.03
2018-02-17T16:31:22.548Z,12.40
2018-02-17T16:33:51.040Z,12.50
2018-02-17T16:36:19.465Z,11.53
2018-02-17T16:38:47.944Z,12.93
2018-02-17T16:41:15.616Z,11.60
2018-02-17T16:43:43.347Z,12.37
2018-02-17T16:46:11.011Z,12.40
2018-02-17T16:48:38.669Z,13.33
2018-02-17T16:51:06.370Z,12.17
2018-02-17T16:53:34.044Z,13.67
2018-02-17T16:56:02.519Z,15.20
2018-02-17T16:58:30.950Z,15.77
2018-02-17T17:00:58.650Z,14.00
2018-02-17T17:03:26.317Z,15.23
2018-02-17T17:05:54.790Z,15.77
2018-02-17T17:08:22.523Z,15.80
2018-02-17T17:10:50.299Z,14.33
2018-02-17T17:13:17.960Z,13.97
2018-02-17T17:15:45.659Z,14.57
2018-02-17T17:18:13.315Z,13.70
2018-02-17T17:20:41.078Z,14.57
2018-02-17T17:23:08.740Z,14.07
2018-02-17T17:25:36.444Z,16.47
2018-02-17T17:28:04.123Z,13.80
2018-02-17T17:30:31.831Z,15.67
2018-02-17T17:32:59.535Z,16.83
2018-02-17T17:35:27.236Z,17.40
2018-02-17T17:37:54.891Z,16.13
2018-02-17T17:40:23.357Z,15.87
2018-02-17T17:42:51.876Z,15.43
2018-02-17T17:45:19.579Z,16.20
2018-02-17T17:47:47.238Z,15.60
2018-02-17T17:50:14.953Z,17.23
2018-02-17T17:52:42.607Z,17.00
2018-02-17T17:55:10.325Z,15.70
2018-02-17T17:57:37.992Z,14.90
2018-02-17T18:00:06.486Z,14.23
2018-02-17T18:02:34.919Z,14.17
2018-02-17T18:05:02.623Z,14.10
2018-02-17T18:07:31.047Z,15.47
2018-02-17T18:09:58.759Z,14.90
2018-02-17T18:12:27.181Z,16.40
2018-02-17T18:14:54.899Z,15.47
2018-02-17T18:17:23.319Z,14.33
2018-02-17T18:19:51.025Z,13.80
2018-02-17T18:22:19.475Z,16.27
2018-02-17T18:24:47.219Z,14.30
2018-02-17T18:27:14.887Z,16.30
2018-02-17T18:29:42.591Z,17.40
2018-02-17T18:32:11.034Z,15.00
2018-02-17T18:34:39.539Z,16.93
2018-02-17T18:37:07.971Z,15.63
2018-02-17T18:39:35.663Z,17.17
2018-02-17T18:42:04.118Z,17.60
2018-02-17T18:44:31.820Z,15.40
2018-02-17T18:47:00.249Z,17.03
2018-02-17T18:49:27.962Z,16.90
2018-02-17T18:51:56.394Z,20.00
2018-02-17T18:54:24.099Z,20.10
2018-02-17T18:56:52.515Z,19.17
2018-02-17T18:59:20.214Z,18.23
2018-02-17T19:01:47.926Z,16.90
2018-02-17T19:04:15.586Z,31.30
2018-02-17T19:06:43.291Z,22.10
2018-02-17T19:09:10.966Z,20.27
2018-02-17T19:11:39.479Z,16.50
2018-02-17T19:14:07.146Z,16.67
2018-02-17T19:16:34.851Z,15.53
2018-02-17T19:19:02.590Z,15.60
2018-02-17T19:21:30.287Z,14.67
2018-02-17T19:23:58.762Z,15.57
2018-02-17T19:26:27.243Z,16.60
2018-02-17T19:28:55.672Z,15.13
2018-02-17T19:31:23.372Z,15.13
2018-02-17T19:33:51.039Z,15.20
2018-02-17T19:36:19.544Z,15.07
2018-02-17T19:38:47.998Z,15.63
2018-02-17T19:41:16.497Z,15.93
2018-02-17T19:43:44.155Z,15.57
2018-02-17T19:46:11.856Z,16.40
2018-02-17T19:48:39.518Z,16.70
2018-02-17T19:51:07.252Z,18.27
2018-02-17T19:53:34.928Z,17.50
2018-02-17T19:56:02.670Z,16.67
2018-02-17T19:58:30.327Z,16.13
2018-02-17T20:00:58.043Z,17.63
2018-02-17T20:03:25.760Z,18.33
2018-02-17T20:05:53.471Z,17.53
2018-02-17T20:08:21.157Z,18.20
2018-02-17T20:10:48.855Z,17.87
2018-02-17T20:13:16.528Z,16.47
2018-02-17T20:15:44.250Z,16.33
2018-02-17T20:18:11.916Z,17.27
2018-02-17T20:20:39.634Z,18.60
2018-02-17T20:23:08.102Z,18.07
2018-02-17T20:25:35.810Z,17.07
2018-02-17T20:28:03.488Z,20.47
2018-02-17T20:30:31.251Z,16.80
2018-02-17T20:32:58.910Z,17.63
2018-02-17T20:35:26.628Z,17.30
2018-02-17T20:37:55.125Z,19.23
2018-02-17T20:40:23.587Z,17.97
2018-02-17T20:42:52.012Z,17.40
2018-02-17T20:45:19.717Z,17.77
2018-02-17T20:47:48.181Z,17.50
2018-02-17T20:50:15.884Z,16.10
2018-02-17T20:52:43.559Z,16.50
2018-02-17T20:55:11.346Z,16.73
2018-02-17T20:57:38.994Z,18.27
2018-02-17T21:00:06.752Z,17.10
2018-02-17T21:02:34.413Z,16.23
2018-02-17T21:05:02.123Z,16.23
2018-02-17T21:07:30.578Z,17.63
2018-02-17T21:09:58.299Z,17.80
2018-02-17T21:12:25.982Z,15.93
2018-02-17T21:14:53.720Z,17.33
2018-02-17T21:17:21.451Z,16.97
2018-02-17T21:19:49.114Z,16.53
2018-02-17T21:22:16.856Z,16.93
2018-02-17T21:24:45.292Z,16.60
2018-02-17T21:27:12.999Z,16.37
2018-02-17T21:29:41.443Z,16.27
2018-02-17T21:32:09.219Z,15.90
2018-02-17T21:34:36.891Z,17.57
2018-02-17T21:37:05.379Z,15.83
2018-02-17T21:39:33.811Z,15.50
2018-02-17T21:42:01.527Z,16.00
2018-02-17T21:44:29.195Z,15.17
2018-02-17T21:46:56.943Z,14.73
2018-02-17T21:49:24.638Z,16.20
2018-02-17T21:51:52.346Z,15.87
2018-02-17T21:54:20.780Z,16.73
2018-02-17T21:56:48.492Z,14.13
2018-02-17T21:59:16.949Z,15.57
2018-02-17T22:01:44.655Z,15.70
2018-02-17T22:04:12.358Z,16.57
2018-02-17T22:06:40.077Z,15.73
2018-02-17T22:09:07.742Z,15.67
2018-02-17T22:11:35.454Z,16.63
2018-02-17T22:14:03.135Z,16.03
2018-02-17T22:16:31.603Z,17.27
2018-02-17T22:19:00.036Z,17.20
2018-02-17T22:21:27.738Z,19.53
2018-02-17T22:23:56.232Z,19.60
2018-02-17T22:26:23.945Z,17.87
2018-02-17T22:28:51.647Z,18.07
2018-02-17T22:31:20.119Z,16.77
2018-02-17T22:33:48.556Z,16.10
2018-02-17T22:36:16.264Z,18.40
2018-02-17T22:38:45.051Z,20.90
2018-02-17T22:41:13.536Z,17.23
2018-02-17T22:43:41.230Z,16.57
2018-02-17T22:46:08.939Z,16.60
2018-02-17T22:48:36.599Z,15.00
2018-02-17T22:51:05.072Z,14.93
2018-02-17T22:53:32.786Z,15.87
2018-02-17T22:56:00.499Z,16.00
2018-02-17T22:58:28.926Z,16.33
2018-02-17T23:00:56.647Z,14.70
2018-02-17T23:03:25.075Z,15.40
2018-02-17T23:05:52.803Z,13.20
2018-02-17T23:08:20.480Z,15.40
2018-02-17T23:10:48.194Z,14.40
2018-02-17T23:13:16.624Z,15.17
2018-02-17T23:15:44.330Z,14.30
2018-02-17T23:18:12.772Z,13.10
2018-02-17T23:20:41.239Z,15.50
2018-02-17T23:23:08.934Z,14.17
2018-02-17T23:25:36.642Z,15.17
2018-02-17T23:28:04.356Z,13.70
2018-02-17T23:30:32.024Z,14.20
2018-02-17T23:33:00.499Z,14.53
2018-02-17T23:35:28.159Z,13.70
2018-02-17T23:37:55.863Z,15.50
2018-02-17T23:40:23.518Z,16.00
2018-02-17T23:42:51.232Z,15.50
2018-02-17T23:45:18.896Z,14.57
2018-02-17T23:47:46.611Z,16.00
2018-02-17T23:50:14.276Z,15.13
2018-02-17T23:52:41.987Z,14.70
2018-02-17T23:55:10.416Z,15.87
2018-02-17T23:57:38.123Z,15.73
